createdAt,value
2023-04-15T00:00:39.294Z,942.6
2023-04-15T00:01:41.261Z,942.7
2023-04-15T00:02:43.570Z,942.6
2023-04-15T00:03:46.172Z,942.6
2023-04-15T00:04:48.829Z,942.6
2023-04-15T00:05:51.008Z,942.7
2023-04-15T00:06:52.842Z,942.7
2023-04-15T00:07:54.698Z,942.7
2023-04-15T00:08:56.644Z,942.6
2023-04-15T00:09:58.498Z,942.6
2023-04-15T00:11:00.345Z,942.7
2023-04-15T00:12:02.306Z,942.7
2023-04-15T00:13:04.046Z,942.7
2023-04-15T00:14:05.892Z,942.7
2023-04-15T00:15:07.879Z,942.8
2023-04-15T00:16:09.814Z,942.8
2023-04-15T00:17:11.752Z,942.8
2023-04-15T00:18:13.705Z,942.7
2023-04-15T00:19:15.464Z,942.8
2023-04-15T00:20:17.307Z,942.9
2023-04-15T00:21:19.151Z,942.8
2023-04-15T00:22:21.008Z,942.9
2023-04-15T00:23:22.864Z,942.9
2023-04-15T00:24:24.702Z,942.9
2023-04-15T00:25:26.549Z,943
2023-04-15T00:26:28.278Z,943
2023-04-15T00:27:30.137Z,943.1
2023-04-15T00:28:32.002Z,943.2
2023-04-15T00:29:33.851Z,943.1
2023-04-15T00:30:35.734Z,943.1
2023-04-15T00:31:37.676Z,943
2023-04-15T00:32:39.643Z,942.9
2023-04-15T00:33:41.656Z,942.9
2023-04-15T00:34:43.344Z,942.9
2023-04-15T00:35:45.159Z,942.9
2023-04-15T00:36:47.018Z,942.9
2023-04-15T00:37:48.758Z,942.9
2023-04-15T00:38:50.717Z,942.9
2023-04-15T00:39:52.663Z,942.9
2023-04-15T00:40:54.482Z,942.9
2023-04-15T00:41:56.366Z,942.9
2023-04-15T00:42:58.212Z,942.9
2023-04-15T00:44:00.073Z,943
2023-04-15T00:45:01.909Z,943
2023-04-15T00:46:04.038Z,943
2023-04-15T00:47:06.231Z,943
2023-04-15T00:48:08.183Z,943
2023-04-15T00:49:10.139Z,943
2023-04-15T00:50:12.081Z,943.1
2023-04-15T00:51:13.938Z,943.1
2023-04-15T00:52:15.697Z,943.1
2023-04-15T00:53:17.638Z,943.2
2023-04-15T00:54:19.494Z,943.2
2023-04-15T00:55:21.378Z,943.2
2023-04-15T00:56:23.184Z,943.1
2023-04-15T00:57:24.926Z,943.1
2023-04-15T00:58:26.611Z,943.1
2023-04-15T00:59:28.530Z,943.1
2023-04-15T01:00:30.489Z,943.1
2023-04-15T01:01:32.634Z,943.1
2023-04-15T01:02:34.994Z,943.1
2023-04-15T01:03:37.815Z,943.2
2023-04-15T01:04:40.238Z,943.2
2023-04-15T01:05:42.090Z,943.2
2023-04-15T01:06:43.938Z,943.2
2023-04-15T01:07:45.796Z,943.2
2023-04-15T01:08:47.645Z,943.2
2023-04-15T01:09:49.412Z,943.2
2023-04-15T01:10:51.446Z,943.2
2023-04-15T01:11:53.297Z,943.2
2023-04-15T01:12:55.025Z,943.2
2023-04-15T01:13:56.892Z,943.1
2023-04-15T01:14:58.834Z,943.1
2023-04-15T01:16:01.113Z,943.1
2023-04-15T01:17:03.038Z,943.1
2023-04-15T01:18:05.337Z,943.1
2023-04-15T01:19:07.260Z,943.1
2023-04-15T01:20:09.010Z,943
2023-04-15T01:21:10.970Z,943
2023-04-15T01:22:12.816Z,943
2023-04-15T01:23:14.870Z,943
2023-04-15T01:24:16.826Z,943
2023-04-15T01:25:18.733Z,943
2023-04-15T01:26:20.618Z,943
2023-04-15T01:27:22.485Z,943
2023-04-15T01:28:24.420Z,942.9
2023-04-15T01:29:26.271Z,942.9
2023-04-15T01:30:28.131Z,942.9
2023-04-15T01:31:30.116Z,943
2023-04-15T01:32:32.177Z,943
2023-04-15T01:33:34.292Z,943
2023-04-15T01:34:36.455Z,943
2023-04-15T01:35:38.292Z,943
2023-04-15T01:36:40.039Z,943
2023-04-15T01:37:41.788Z,943
2023-04-15T01:38:43.753Z,943.1
2023-04-15T01:39:45.491Z,943
2023-04-15T01:40:47.338Z,943
2023-04-15T01:41:49.194Z,943.1
2023-04-15T01:42:51.044Z,943
2023-04-15T01:43:53.096Z,943
2023-04-15T01:44:54.960Z,943.1
2023-04-15T01:45:56.735Z,943
2023-04-15T01:46:58.998Z,943
2023-04-15T01:48:01.280Z,943
2023-04-15T01:49:03.585Z,943
2023-04-15T01:50:05.538Z,943
2023-04-15T01:51:07.490Z,943
2023-04-15T01:52:09.315Z,943
2023-04-15T01:53:11.195Z,943
2023-04-15T01:54:13.143Z,943
2023-04-15T01:55:14.988Z,943
2023-04-15T01:56:17.458Z,943
2023-04-15T01:57:19.302Z,943
2023-04-15T01:58:21.054Z,943
2023-04-15T01:59:22.995Z,943
2023-04-15T02:00:24.871Z,943.1
2023-04-15T02:01:27.060Z,943
2023-04-15T02:02:29.344Z,943
2023-04-15T02:03:31.829Z,943
2023-04-15T02:04:33.803Z,943
2023-04-15T02:05:35.644Z,943.1
2023-04-15T02:06:37.385Z,943
2023-04-15T02:07:39.347Z,943.1
2023-04-15T02:08:41.185Z,943
2023-04-15T02:09:43.036Z,943.1
2023-04-15T02:10:44.889Z,943.1
2023-04-15T02:11:46.747Z,943.1
2023-04-15T02:12:48.688Z,943.2
2023-04-15T02:13:50.581Z,943.1
2023-04-15T02:14:52.493Z,943.2
2023-04-15T02:15:54.455Z,943.2
2023-04-15T02:16:56.226Z,943.2
2023-04-15T02:17:58.397Z,943.2
2023-04-15T02:19:01.244Z,943.2
2023-04-15T02:20:03.594Z,943.1
2023-04-15T02:21:05.438Z,943.1
2023-04-15T02:22:07.222Z,943.1
2023-04-15T02:23:09.036Z,943.1
2023-04-15T02:24:10.886Z,943.1
2023-04-15T02:25:15.296Z,943
2023-04-15T02:26:17.154Z,943
2023-04-15T02:27:19.009Z,942.9
2023-04-15T02:28:20.903Z,942.9
2023-04-15T02:29:22.797Z,942.9
2023-04-15T02:30:24.557Z,942.9
2023-04-15T02:31:26.529Z,942.9
2023-04-15T02:32:28.464Z,943
2023-04-15T02:33:30.412Z,942.9
2023-04-15T02:34:32.390Z,942.9
2023-04-15T02:35:34.314Z,942.9
2023-04-15T02:36:36.166Z,942.9
2023-04-15T02:37:38.007Z,942.9
2023-04-15T02:38:39.855Z,942.9
2023-04-15T02:39:41.613Z,942.9
2023-04-15T02:40:43.472Z,942.9
2023-04-15T02:41:45.292Z,942.9
2023-04-15T02:42:47.154Z,942.9
2023-04-15T02:43:49.014Z,942.9
2023-04-15T02:44:50.853Z,942.9
2023-04-15T02:45:53.067Z,942.9
2023-04-15T02:46:55.071Z,943
2023-04-15T02:47:57.043Z,943
2023-04-15T02:48:59.458Z,943
2023-04-15T02:50:02.290Z,943
2023-04-15T02:51:04.216Z,943.1
2023-04-15T02:52:06.067Z,943
2023-04-15T02:53:07.914Z,943.1
2023-04-15T02:54:09.898Z,943.1
2023-04-15T02:55:11.620Z,943
2023-04-15T02:56:13.465Z,943
2023-04-15T02:57:15.314Z,943
2023-04-15T02:58:17.162Z,943
2023-04-15T02:59:19.006Z,943
2023-04-15T03:00:20.855Z,943.1
2023-04-15T03:01:22.820Z,943.1
2023-04-15T03:02:25.325Z,943
2023-04-15T03:03:27.704Z,943
2023-04-15T03:04:29.687Z,943.1
2023-04-15T03:05:31.572Z,943.1
2023-04-15T03:06:33.601Z,943.2
2023-04-15T03:07:35.549Z,943.2
2023-04-15T03:08:37.507Z,943.2
2023-04-15T03:09:39.348Z,943.2
2023-04-15T03:10:41.287Z,943.3
2023-04-15T03:11:43.148Z,943.3
2023-04-15T03:12:45.011Z,943.2
2023-04-15T03:13:46.961Z,943.2
2023-04-15T03:14:48.918Z,943.3
2023-04-15T03:15:51.096Z,943.2
2023-04-15T03:16:53.103Z,943.2
2023-04-15T03:17:55.124Z,943.2
2023-04-15T03:18:57.021Z,943.2
2023-04-15T03:19:59.025Z,943.3
2023-04-15T03:21:00.958Z,943.3
2023-04-15T03:22:02.890Z,943.3
2023-04-15T03:23:04.624Z,943.4
2023-04-15T03:24:06.589Z,943.4
2023-04-15T03:25:08.430Z,943.4
2023-04-15T03:26:10.392Z,943.4
2023-04-15T03:27:12.132Z,943.4
2023-04-15T03:28:13.881Z,943.3
2023-04-15T03:29:15.655Z,943.3
2023-04-15T03:30:17.489Z,943.3
2023-04-15T03:31:19.544Z,943.3
2023-04-15T03:32:21.618Z,943.4
2023-04-15T03:33:23.542Z,943.5
2023-04-15T03:34:25.504Z,943.6
2023-04-15T03:35:27.243Z,943.5
2023-04-15T03:36:29.112Z,943.5
2023-04-15T03:37:30.938Z,943.4
2023-04-15T03:38:32.788Z,943.4
2023-04-15T03:39:34.545Z,943.3
2023-04-15T03:40:36.392Z,943.4
2023-04-15T03:41:38.349Z,943.5
2023-04-15T03:42:40.188Z,943.6
2023-04-15T03:43:41.952Z,943.6
2023-04-15T03:44:43.694Z,943.7
2023-04-15T03:45:45.432Z,943.6
2023-04-15T03:46:47.575Z,943.5
2023-04-15T03:47:49.998Z,943.6
2023-04-15T03:48:51.918Z,943.6
2023-04-15T03:49:53.865Z,943.7
2023-04-15T03:50:55.614Z,943.7
2023-04-15T03:51:57.594Z,943.8
2023-04-15T03:52:59.433Z,943.7
2023-04-15T03:54:01.360Z,943.7
2023-04-15T03:55:03.221Z,943.7
2023-04-15T03:56:05.080Z,943.7
2023-04-15T03:57:06.910Z,943.7
2023-04-15T03:58:08.704Z,943.7
2023-04-15T03:59:10.610Z,943.7
2023-04-15T04:00:12.472Z,943.7
2023-04-15T04:01:14.309Z,943.7
2023-04-15T04:02:16.446Z,943.7
2023-04-15T04:03:19.418Z,943.7
2023-04-15T04:04:22.148Z,943.6
2023-04-15T04:05:24.181Z,943.6
2023-04-15T04:06:26.017Z,943.6
2023-04-15T04:07:27.896Z,943.7
2023-04-15T04:08:29.732Z,943.8
2023-04-15T04:09:31.578Z,943.8
2023-04-15T04:10:33.460Z,943.9
2023-04-15T04:11:35.203Z,943.8
2023-04-15T04:12:37.028Z,943.8
2023-04-15T04:13:38.965Z,943.8
2023-04-15T04:14:40.941Z,943.8
2023-04-15T04:15:42.785Z,943.8
2023-04-15T04:16:44.821Z,943.7
2023-04-15T04:17:46.839Z,943.8
2023-04-15T04:18:48.940Z,943.8
2023-04-15T04:19:50.787Z,943.8
2023-04-15T04:20:52.637Z,943.8
2023-04-15T04:21:54.390Z,943.8
2023-04-15T04:22:56.258Z,943.8
2023-04-15T04:23:58.195Z,943.8
2023-04-15T04:25:00.180Z,943.9
2023-04-15T04:26:01.986Z,943.8
2023-04-15T04:27:03.940Z,943.8
2023-04-15T04:28:05.751Z,943.8
2023-04-15T04:29:07.754Z,943.8
2023-04-15T04:30:09.410Z,943.8
2023-04-15T04:31:11.250Z,943.8
2023-04-15T04:32:13.350Z,943.8
2023-04-15T04:33:15.136Z,943.8
2023-04-15T04:34:17.201Z,943.8
2023-04-15T04:35:19.067Z,943.8
2023-04-15T04:36:20.996Z,943.9
2023-04-15T04:37:22.853Z,943.8
2023-04-15T04:38:24.721Z,943.8
2023-04-15T04:39:26.655Z,943.8
2023-04-15T04:40:28.610Z,943.8
2023-04-15T04:41:30.486Z,943.9
2023-04-15T04:42:32.207Z,943.9
2023-04-15T04:43:33.953Z,943.9
2023-04-15T04:44:35.799Z,943.9
2023-04-15T04:45:37.769Z,943.9
2023-04-15T04:46:39.501Z,943.9
2023-04-15T04:47:41.362Z,944
2023-04-15T04:48:45.963Z,943.9
2023-04-15T04:49:48.935Z,944
2023-04-15T04:50:50.800Z,944
2023-04-15T04:51:52.651Z,944
2023-04-15T04:52:54.488Z,944
2023-04-15T04:53:56.261Z,944
2023-04-15T04:54:58.190Z,944
2023-04-15T04:56:00.178Z,944
2023-04-15T04:57:01.999Z,944
2023-04-15T04:58:03.848Z,944
2023-04-15T04:59:05.697Z,944
2023-04-15T05:00:07.560Z,944.1
2023-04-15T05:01:09.608Z,944.1
2023-04-15T05:02:11.688Z,944.1
2023-04-15T05:03:14.110Z,944.1
2023-04-15T05:04:16.626Z,944.1
2023-04-15T05:05:18.641Z,944.1
2023-04-15T05:06:20.492Z,944.1
2023-04-15T05:07:22.348Z,944.2
2023-04-15T05:08:24.187Z,944.2
2023-04-15T05:09:26.055Z,944.2
2023-04-15T05:10:27.996Z,944.2
2023-04-15T05:11:29.849Z,944.2
2023-04-15T05:12:31.634Z,944.3
2023-04-15T05:13:33.444Z,944.3
2023-04-15T05:14:35.201Z,944.3
2023-04-15T05:15:37.261Z,944.4
2023-04-15T05:16:39.196Z,944.4
2023-04-15T05:17:41.172Z,944.4
2023-04-15T05:18:43.028Z,944.4
2023-04-15T05:19:44.856Z,944.4
2023-04-15T05:20:46.629Z,944.4
2023-04-15T05:21:48.548Z,944.4
2023-04-15T05:22:50.400Z,944.4
2023-04-15T05:23:52.240Z,944.4
2023-04-15T05:24:54.122Z,944.4
2023-04-15T05:25:56.053Z,944.5
2023-04-15T05:26:58.011Z,944.5
2023-04-15T05:27:59.851Z,944.5
2023-04-15T05:29:03.050Z,944.5
2023-04-15T05:30:05.167Z,944.5
2023-04-15T05:31:07.088Z,944.5
2023-04-15T05:32:09.099Z,944.5
2023-04-15T05:33:10.823Z,944.5
2023-04-15T05:34:12.796Z,944.4
2023-04-15T05:35:14.743Z,944.5
2023-04-15T05:36:16.594Z,944.4
2023-04-15T05:37:18.554Z,944.4
2023-04-15T05:38:20.497Z,944.4
2023-04-15T05:39:22.358Z,944.4
2023-04-15T05:40:24.233Z,944.4
2023-04-15T05:41:26.161Z,944.4
2023-04-15T05:42:28.013Z,944.4
2023-04-15T05:43:29.960Z,944.4
2023-04-15T05:44:31.722Z,944.4
2023-04-15T05:45:33.552Z,944.4
2023-04-15T05:46:35.795Z,944.4
2023-04-15T05:47:38.077Z,944.4
2023-04-15T05:48:40.137Z,944.4
2023-04-15T05:49:42.196Z,944.4
2023-04-15T05:50:44.039Z,944.4
2023-04-15T05:51:45.989Z,944.5
2023-04-15T05:52:47.841Z,944.5
2023-04-15T05:53:49.691Z,944.4
2023-04-15T05:54:51.534Z,944.4
2023-04-15T05:55:53.507Z,944.4
2023-04-15T05:56:55.449Z,944.4
2023-04-15T05:57:57.294Z,944.5
2023-04-15T05:58:59.493Z,944.4
2023-04-15T06:00:02.022Z,944.5
2023-04-15T06:01:03.867Z,944.5
2023-04-15T06:02:05.844Z,944.5
2023-04-15T06:03:08.198Z,944.6
2023-04-15T06:04:10.580Z,944.6
2023-04-15T06:05:12.501Z,944.6
2023-04-15T06:06:14.550Z,944.6
2023-04-15T06:07:16.404Z,944.6
2023-04-15T06:08:18.257Z,944.5
2023-04-15T06:09:20.408Z,944.6
2023-04-15T06:10:22.671Z,944.5
2023-04-15T06:11:24.505Z,944.6
2023-04-15T06:12:26.475Z,944.6
2023-04-15T06:13:28.319Z,944.6
2023-04-15T06:14:30.167Z,944.6
2023-04-15T06:15:32.016Z,944.5
2023-04-15T06:16:34.036Z,944.6
2023-04-15T06:17:36.156Z,944.6
2023-04-15T06:18:38.096Z,944.5
2023-04-15T06:19:39.825Z,944.6
2023-04-15T06:20:41.707Z,944.6
2023-04-15T06:21:43.521Z,944.6
2023-04-15T06:22:45.386Z,944.6
2023-04-15T06:23:47.254Z,944.6
2023-04-15T06:24:49.087Z,944.7
2023-04-15T06:25:50.935Z,944.7
2023-04-15T06:26:52.802Z,944.7
2023-04-15T06:27:54.629Z,944.6
2023-04-15T06:28:56.579Z,944.6
2023-04-15T06:29:58.324Z,944.6
2023-04-15T06:31:00.286Z,944.6
2023-04-15T06:32:02.133Z,944.5
2023-04-15T06:33:04.303Z,944.5
2023-04-15T06:34:06.235Z,944.5
2023-04-15T06:35:08.087Z,944.6
2023-04-15T06:36:10.038Z,944.7
2023-04-15T06:37:11.889Z,944.7
2023-04-15T06:38:13.738Z,944.7
2023-04-15T06:39:15.586Z,944.8
2023-04-15T06:40:17.319Z,944.8
2023-04-15T06:41:19.288Z,944.8
2023-04-15T06:42:21.179Z,944.8
2023-04-15T06:43:23.100Z,944.8
2023-04-15T06:44:24.938Z,944.8
2023-04-15T06:45:27.035Z,944.8
2023-04-15T06:46:28.860Z,944.9
2023-04-15T06:47:31.082Z,944.8
2023-04-15T06:48:32.962Z,944.9
2023-04-15T06:49:34.620Z,944.9
2023-04-15T06:50:36.565Z,944.9
2023-04-15T06:51:38.271Z,944.9
2023-04-15T06:52:40.156Z,944.9
2023-04-15T06:53:42.008Z,944.9
2023-04-15T06:54:43.866Z,945
2023-04-15T06:55:45.719Z,944.9
2023-04-15T06:56:47.655Z,944.9
2023-04-15T06:57:49.544Z,944.9
2023-04-15T06:58:51.465Z,944.9
2023-04-15T06:59:53.306Z,944.9
2023-04-15T07:00:55.176Z,944.9
2023-04-15T07:01:57.243Z,945
2023-04-15T07:02:59.181Z,945
2023-04-15T07:04:01.139Z,945
2023-04-15T07:05:02.847Z,945
2023-04-15T07:06:04.720Z,945
2023-04-15T07:07:06.670Z,945
2023-04-15T07:08:08.518Z,945
2023-04-15T07:09:10.264Z,945
2023-04-15T07:10:12.128Z,945
2023-04-15T07:11:14.069Z,944.9
2023-04-15T07:12:16.046Z,945
2023-04-15T07:13:17.895Z,945
2023-04-15T07:14:19.828Z,945
2023-04-15T07:15:21.678Z,945.1
2023-04-15T07:16:23.629Z,945.1
2023-04-15T07:17:25.796Z,945.1
2023-04-15T07:18:27.618Z,945.1
2023-04-15T07:19:29.509Z,945
2023-04-15T07:20:31.239Z,945
2023-04-15T07:21:33.085Z,944.9
2023-04-15T07:22:35.050Z,944.9
2023-04-15T07:23:36.872Z,944.9
2023-04-15T07:24:38.738Z,944.9
2023-04-15T07:25:40.579Z,944.9
2023-04-15T07:26:42.331Z,944.9
2023-04-15T07:27:44.176Z,944.9
2023-04-15T07:28:45.955Z,945
2023-04-15T07:29:47.784Z,944.9
2023-04-15T07:30:49.946Z,945
2023-04-15T07:31:51.894Z,945
2023-04-15T07:32:53.947Z,945
2023-04-15T07:33:55.905Z,945
2023-04-15T07:34:57.731Z,945
2023-04-15T07:35:59.594Z,945
2023-04-15T07:37:01.446Z,945
2023-04-15T07:38:03.314Z,945
2023-04-15T07:39:05.156Z,945
2023-04-15T07:40:07.016Z,944.9
2023-04-15T07:41:08.843Z,944.9
2023-04-15T07:42:10.735Z,944.9
2023-04-15T07:43:12.656Z,945
2023-04-15T07:44:14.726Z,945
2023-04-15T07:45:16.656Z,945
2023-04-15T07:46:18.748Z,945
2023-04-15T07:47:20.699Z,945
2023-04-15T07:48:22.529Z,945
2023-04-15T07:49:24.388Z,945
2023-04-15T07:50:26.250Z,945.1
2023-04-15T07:51:27.958Z,945.1
2023-04-15T07:52:29.822Z,945.1
2023-04-15T07:53:31.653Z,945
2023-04-15T07:54:33.624Z,945.1
2023-04-15T07:55:35.564Z,945.1
2023-04-15T07:56:37.426Z,945.1
2023-04-15T07:57:39.288Z,945.1
2023-04-15T07:58:41.216Z,945.1
2023-04-15T07:59:43.092Z,945.1
2023-04-15T08:00:44.855Z,945.1
2023-04-15T08:01:46.811Z,945.2
2023-04-15T08:02:49.400Z,945.2
2023-04-15T08:03:52.084Z,945.2
2023-04-15T08:04:54.397Z,945.2
2023-04-15T08:05:56.333Z,945.2
2023-04-15T08:06:58.169Z,945.1
2023-04-15T08:08:00.009Z,945.1
2023-04-15T08:09:02.724Z,945.2
2023-04-15T08:10:04.967Z,945.2
2023-04-15T08:11:07.016Z,945.1
2023-04-15T08:12:08.857Z,945.2
2023-04-15T08:13:10.806Z,945.2
2023-04-15T08:14:12.664Z,945.1
2023-04-15T08:15:14.538Z,945.1
2023-04-15T08:16:16.792Z,945.1
2023-04-15T08:17:18.735Z,945.2
2023-04-15T08:18:20.668Z,945.1
2023-04-15T08:19:22.423Z,945.2
2023-04-15T08:20:24.248Z,945.2
2023-04-15T08:21:26.067Z,945.1
2023-04-15T08:22:27.965Z,945.1
2023-04-15T08:23:29.742Z,945.1
2023-04-15T08:24:31.568Z,945.1
2023-04-15T08:25:33.514Z,945.1
2023-04-15T08:26:35.364Z,945.1
2023-04-15T08:27:37.219Z,945.1
2023-04-15T08:28:39.072Z,945.1
2023-04-15T08:29:40.922Z,945.1
2023-04-15T08:30:42.794Z,945.1
2023-04-15T08:31:44.853Z,945.1
2023-04-15T08:32:47.143Z,945.1
2023-04-15T08:33:49.284Z,945.1
2023-04-15T08:34:51.096Z,945.1
2023-04-15T08:35:52.959Z,945
2023-04-15T08:36:54.827Z,945
2023-04-15T08:37:56.738Z,945
2023-04-15T08:38:58.590Z,945
2023-04-15T08:40:00.444Z,945
2023-04-15T08:41:02.352Z,945
2023-04-15T08:42:04.244Z,945
2023-04-15T08:43:06.100Z,945
2023-04-15T08:44:08.051Z,945
2023-04-15T08:45:09.892Z,945
2023-04-15T08:46:11.679Z,945
2023-04-15T08:47:13.603Z,945
2023-04-15T08:48:15.475Z,945
2023-04-15T08:49:17.402Z,945
2023-04-15T08:50:19.380Z,945
2023-04-15T08:51:25.036Z,944.9
2023-04-15T08:52:26.851Z,945
2023-04-15T08:53:28.699Z,945
2023-04-15T08:54:30.640Z,944.9
2023-04-15T08:55:32.398Z,945
2023-04-15T08:56:34.365Z,944.9
2023-04-15T08:57:36.093Z,944.9
2023-04-15T08:58:37.950Z,944.9
2023-04-15T08:59:39.903Z,944.9
2023-04-15T09:00:41.745Z,944.9
2023-04-15T09:01:43.787Z,944.9
2023-04-15T09:02:46.101Z,944.9
2023-04-15T09:03:48.538Z,944.9
2023-04-15T09:04:50.784Z,944.9
2023-04-15T09:05:53.771Z,944.8
2023-04-15T09:06:55.612Z,944.8
2023-04-15T09:07:57.579Z,944.8
2023-04-15T09:08:59.526Z,944.8
2023-04-15T09:10:01.684Z,944.8
2023-04-15T09:11:03.737Z,944.8
2023-04-15T09:12:05.587Z,944.8
2023-04-15T09:13:07.632Z,944.7
2023-04-15T09:14:09.492Z,944.7
2023-04-15T09:15:11.335Z,944.7
2023-04-15T09:16:13.319Z,944.6
2023-04-15T09:17:15.163Z,944.6
2023-04-15T09:18:17.904Z,944.6
2023-04-15T09:19:19.651Z,944.6
2023-04-15T09:20:21.503Z,944.6
2023-04-15T09:21:23.370Z,944.5
2023-04-15T09:22:25.306Z,944.5
2023-04-15T09:23:27.153Z,944.5
2023-04-15T09:24:29.005Z,944.5
2023-04-15T09:25:35.265Z,944.6
2023-04-15T09:26:37.237Z,944.6
2023-04-15T09:27:39.100Z,944.6
2023-04-15T09:28:40.917Z,944.5
2023-04-15T09:29:42.864Z,944.6
2023-04-15T09:30:44.760Z,944.6
2023-04-15T09:31:46.669Z,944.6
2023-04-15T09:32:48.649Z,944.6
2023-04-15T09:33:50.676Z,944.7
2023-04-15T09:34:52.520Z,944.7
2023-04-15T09:35:54.268Z,944.7
2023-04-15T09:36:56.137Z,944.7
2023-04-15T09:37:58.080Z,944.7
2023-04-15T09:38:59.919Z,944.6
2023-04-15T09:40:01.804Z,944.6
2023-04-15T09:41:03.624Z,944.6
2023-04-15T09:42:05.484Z,944.6
2023-04-15T09:43:07.346Z,944.6
2023-04-15T09:44:09.178Z,944.6
2023-04-15T09:45:10.928Z,944.6
2023-04-15T09:46:12.893Z,944.6
2023-04-15T09:47:14.728Z,944.6
2023-04-15T09:48:16.695Z,944.6
2023-04-15T09:49:18.871Z,944.7
2023-04-15T09:50:20.799Z,944.7
2023-04-15T09:51:22.649Z,944.7
2023-04-15T09:52:24.582Z,944.7
2023-04-15T09:53:26.543Z,944.7
2023-04-15T09:54:28.510Z,944.7
2023-04-15T09:55:30.349Z,944.7
2023-04-15T09:56:32.200Z,944.7
2023-04-15T09:57:34.058Z,944.7
2023-04-15T09:58:35.911Z,944.7
2023-04-15T09:59:37.953Z,944.7
2023-04-15T10:00:39.734Z,944.6
2023-04-15T10:01:41.816Z,944.6
2023-04-15T10:02:44.374Z,944.6
2023-04-15T10:03:46.899Z,944.6
2023-04-15T10:04:48.947Z,944.6
2023-04-15T10:05:50.992Z,944.6
2023-04-15T10:06:52.853Z,944.5
2023-04-15T10:07:54.712Z,944.5
2023-04-15T10:08:56.528Z,944.6
2023-04-15T10:09:58.408Z,944.5
2023-04-15T10:11:00.252Z,944.5
2023-04-15T10:12:02.112Z,944.5
2023-04-15T10:13:03.952Z,944.5
2023-04-15T10:14:05.794Z,944.5
2023-04-15T10:15:07.647Z,944.4
2023-04-15T10:16:09.841Z,944.4
2023-04-15T10:17:11.980Z,944.4
2023-04-15T10:18:13.818Z,944.4
2023-04-15T10:19:15.582Z,944.4
2023-04-15T10:20:17.545Z,944.3
2023-04-15T10:21:19.465Z,944.3
2023-04-15T10:22:21.305Z,944.3
2023-04-15T10:23:23.166Z,944.3
2023-04-15T10:24:25.027Z,944.3
2023-04-15T10:25:26.972Z,944.3
2023-04-15T10:26:28.822Z,944.4
2023-04-15T10:27:30.569Z,944.3
2023-04-15T10:28:32.327Z,944.3
2023-04-15T10:29:34.157Z,944.3
2023-04-15T10:30:36.126Z,944.3
2023-04-15T10:31:38.342Z,944.2
2023-04-15T10:32:40.549Z,944.3
2023-04-15T10:33:42.385Z,944.3
2023-04-15T10:34:44.259Z,944.3
2023-04-15T10:35:46.195Z,944.3
2023-04-15T10:36:48.046Z,944.3
2023-04-15T10:37:49.882Z,944.3
2023-04-15T10:38:51.816Z,944.3
2023-04-15T10:39:53.683Z,944.3
2023-04-15T10:40:55.431Z,944.2
2023-04-15T10:41:57.279Z,944.2
2023-04-15T10:42:59.046Z,944.2
2023-04-15T10:44:01.884Z,944.2
2023-04-15T10:45:04.276Z,944.2
2023-04-15T10:46:06.243Z,944.2
2023-04-15T10:47:08.075Z,944.2
2023-04-15T10:48:10.154Z,944.2
2023-04-15T10:49:11.977Z,944.2
2023-04-15T10:50:13.901Z,944.2
2023-04-15T10:51:15.849Z,944.2
2023-04-15T10:52:17.828Z,944.2
2023-04-15T10:53:22.238Z,944.1
2023-04-15T10:54:24.099Z,944.2
2023-04-15T10:55:25.949Z,944.2
2023-04-15T10:56:27.797Z,944.2
2023-04-15T10:57:29.748Z,944.1
2023-04-15T10:58:31.593Z,944.1
2023-04-15T10:59:33.337Z,944.1
2023-04-15T11:00:35.205Z,944.1
2023-04-15T11:01:37.177Z,944.1
2023-04-15T11:02:39.880Z,944.1
2023-04-15T11:03:42.724Z,944.1
2023-04-15T11:04:44.985Z,944.1
2023-04-15T11:05:46.856Z,944.1
2023-04-15T11:06:48.755Z,944.1
2023-04-15T11:07:50.610Z,944.1
2023-04-15T11:08:52.471Z,944.1
2023-04-15T11:09:54.282Z,944.1
2023-04-15T11:10:56.174Z,944.1
2023-04-15T11:11:58.122Z,944.1
2023-04-15T11:13:00.069Z,944.1
2023-04-15T11:14:02.788Z,944.1
2023-04-15T11:15:08.262Z,944.1
2023-04-15T11:16:10.311Z,944.1
2023-04-15T11:17:12.378Z,944.2
2023-04-15T11:18:14.220Z,944.1
2023-04-15T11:19:16.066Z,944.1
2023-04-15T11:20:17.915Z,944.1
2023-04-15T11:21:19.792Z,944.1
2023-04-15T11:22:21.713Z,944.1
2023-04-15T11:23:23.677Z,944.1
2023-04-15T11:24:25.527Z,944.1
2023-04-15T11:25:27.385Z,944.1
2023-04-15T11:26:29.527Z,944.1
2023-04-15T11:27:31.376Z,944.1
2023-04-15T11:28:33.138Z,944.1
2023-04-15T11:29:34.881Z,944.1
2023-04-15T11:30:36.736Z,944.1
2023-04-15T11:31:38.685Z,944.1
2023-04-15T11:32:40.747Z,944.1
2023-04-15T11:33:42.898Z,944.1
2023-04-15T11:34:44.741Z,944.1
2023-04-15T11:35:46.597Z,944.1
2023-04-15T11:36:48.468Z,944.1
2023-04-15T11:37:50.292Z,944.1
2023-04-15T11:38:52.154Z,944.1
2023-04-15T11:39:54.001Z,944.1
2023-04-15T11:40:55.856Z,944.1
2023-04-15T11:41:57.804Z,944.1
2023-04-15T11:42:59.648Z,944.1
2023-04-15T11:44:02.339Z,944
2023-04-15T11:45:04.784Z,944
2023-04-15T11:46:06.759Z,944
2023-04-15T11:47:08.792Z,944
2023-04-15T11:48:10.760Z,944
2023-04-15T11:49:12.585Z,943.9
2023-04-15T11:50:14.444Z,944
2023-04-15T11:51:16.399Z,943.9
2023-04-15T11:52:18.180Z,943.9
2023-04-15T11:53:19.984Z,944
2023-04-15T11:54:21.858Z,944
2023-04-15T11:55:23.689Z,943.9
2023-04-15T11:56:25.533Z,943.9
2023-04-15T11:57:27.387Z,944
2023-04-15T11:58:29.131Z,943.9
2023-04-15T11:59:46.477Z,943.9
2023-04-15T12:00:48.308Z,943.8
2023-04-15T12:01:50.379Z,943.8
2023-04-15T12:02:52.740Z,943.8
2023-04-15T12:03:55.557Z,943.8
2023-04-15T12:04:57.773Z,943.8
2023-04-15T12:05:59.601Z,943.8
2023-04-15T12:07:01.448Z,943.8
2023-04-15T12:08:03.223Z,943.8
2023-04-15T12:09:05.163Z,943.8
2023-04-15T12:10:07.006Z,943.8
2023-04-15T12:11:08.741Z,943.8
2023-04-15T12:12:10.600Z,943.9
2023-04-15T12:13:12.440Z,943.9
2023-04-15T12:14:14.400Z,943.9
2023-04-15T12:15:16.244Z,943.8
2023-04-15T12:16:18.382Z,943.8
2023-04-15T12:17:20.495Z,943.9
2023-04-15T12:18:22.205Z,943.8
2023-04-15T12:19:24.164Z,943.8
2023-04-15T12:20:26.009Z,943.8
2023-04-15T12:21:27.964Z,943.8
2023-04-15T12:22:29.821Z,943.8
2023-04-15T12:23:31.792Z,943.8
2023-04-15T12:24:33.727Z,943.8
2023-04-15T12:25:35.610Z,943.9
2023-04-15T12:26:37.422Z,943.9
2023-04-15T12:27:39.270Z,943.8
2023-04-15T12:28:41.123Z,943.8
2023-04-15T12:29:43.088Z,943.9
2023-04-15T12:30:45.019Z,943.9
2023-04-15T12:31:47.228Z,943.9
2023-04-15T12:32:49.380Z,943.9
2023-04-15T12:33:51.286Z,943.9
2023-04-15T12:34:53.247Z,943.9
2023-04-15T12:35:55.091Z,943.9
2023-04-15T12:36:57.040Z,943.9
2023-04-15T12:37:59.006Z,943.9
2023-04-15T12:39:00.880Z,943.9
2023-04-15T12:40:02.841Z,944
2023-04-15T12:41:04.865Z,944
2023-04-15T12:42:06.716Z,943.9
2023-04-15T12:43:08.566Z,943.9
2023-04-15T12:44:10.412Z,944
2023-04-15T12:45:12.355Z,944
2023-04-15T12:46:14.324Z,944
2023-04-15T12:47:16.172Z,944
2023-04-15T12:48:18.222Z,944
2023-04-15T12:49:20.164Z,944.1
2023-04-15T12:50:22.024Z,944.1
2023-04-15T12:51:23.873Z,944.1
2023-04-15T12:52:25.819Z,944
2023-04-15T12:53:27.669Z,944
2023-04-15T12:54:29.526Z,944
2023-04-15T12:55:31.476Z,944
2023-04-15T12:56:33.324Z,944
2023-04-15T12:57:35.076Z,944
2023-04-15T12:58:36.918Z,944
2023-04-15T12:59:38.771Z,944
2023-04-15T13:00:40.536Z,944
2023-04-15T13:01:42.480Z,944
2023-04-15T13:02:44.962Z,944
2023-04-15T13:03:47.771Z,944
2023-04-15T13:04:49.990Z,944
2023-04-15T13:05:51.722Z,944
2023-04-15T13:06:53.410Z,944
2023-04-15T13:07:55.213Z,944
2023-04-15T13:08:59.497Z,944
2023-04-15T13:10:01.593Z,944
2023-04-15T13:11:03.422Z,944
2023-04-15T13:12:05.283Z,944
2023-04-15T13:13:07.116Z,943.9
2023-04-15T13:14:08.973Z,943.9
2023-04-15T13:15:10.820Z,943.9
2023-04-15T13:16:12.996Z,943.9
2023-04-15T13:17:14.836Z,943.9
2023-04-15T13:18:16.684Z,943.8
2023-04-15T13:19:18.534Z,943.9
2023-04-15T13:20:20.379Z,943.9
2023-04-15T13:21:22.339Z,943.8
2023-04-15T13:22:24.083Z,943.9
2023-04-15T13:23:25.927Z,943.9
2023-04-15T13:24:27.704Z,943.9
2023-04-15T13:25:29.549Z,943.8
2023-04-15T13:26:31.489Z,943.9
2023-04-15T13:27:33.427Z,943.8
2023-04-15T13:28:35.110Z,943.9
2023-04-15T13:29:37.025Z,943.8